Due to severe server failure at the provider, not all demo sites are operational. Will take some days to rebuilt everything.

Demonstration site - Click on the  for more information

This is an optional block. Switch it on/off in your settings-file: $SITE['bannerTop'] = false; or $SITE['bannerBottom'] = false;

You can display ads, any other important text or photo’s using text / html or PHP code.

You can place one or more at the top and or bottom and it can all be different for content / size .



Visit our other weather sites:

Template documentation
and downloads

And another site



Nearby METAR Reports

   
EBAW - Antwerp
Updated: 05-07-2020 19:20
Partly Cloudy  
Partly Cloudy  
   Wind: WSW 37 km/h<br />Gust to 37 km/h
Wind: WSW 37 km/h
Gust to 37 km/h
Temperature: 20°C
Dew Point: 11°C
Humidity: 56%
Barometer: 1012 hPa
Clouds: Partly Cloudy
Visibility: More than 10 km
Cloud details: Partly Cloudy 4300 ft
EBAW 051720Z 24020G30KT 9999 SCT043 20/11 Q1012 NOSIG
EBLG - Liège
Updated: 05-07-2020 19:20
Partly Cloudy  
Partly Cloudy  
   Wind: WSW 27.8 km/h
Wind: WSW 27.8 km/h
Temperature: 22°C
Dew Point: 15°C
Humidity: 65%
Barometer: 1013 hPa
Clouds: Partly Cloudy
Visibility: More than 10 km
Cloud details: Few Clouds 2800 ft,
Partly Cloudy 4500 ft
EBLG 051720Z 24015KT 9999 FEW028 SCT045 22/15 Q1013 NOSIG
EBCV - Mons/Bergen
Updated: 05-07-2020 19:25
Few Clouds  
Few Clouds  
   Wind: WSW 35.2 km/h<br />Gust to 35.2 km/h
Wind: WSW 35.2 km/h
Gust to 35.2 km/h
Temperature: 19°C
Dew Point: 12°C
Humidity: 64%
Barometer: 1013 hPa
Clouds: Few Clouds
Visibility: More than 10 km
Cloud details: Few Clouds 3200 ft
EBCV 051725Z AUTO 25019G31KT 9999 FEW032/// 19/12 Q1013 BLU
EHBK - Maastricht
Updated: 05-07-2020 19:25
Partly Cloudy  
Partly Cloudy  
   Wind: WSW 27.8 km/h
Wind: WSW 27.8 km/h
Temperature: 22°C
Dew Point: 15°C
Humidity: 65%
Barometer: 1012 hPa
Clouds: Partly Cloudy
Visibility: More than 10 km
Cloud details: Few Clouds 3000 ft,
Partly Cloudy 4800 ft
EHBK 051725Z AUTO 24015KT 200V270 9999 FEW030 SCT048 22/15 Q1012 NOSIG
ELLX - Luxemburg
Updated: 05-07-2020 19:20
Mostly Cloudy  
Mostly Cloudy  
   Wind: WSW 31.5 km/h
Wind: WSW 31.5 km/h
Temperature: 21°C
Dew Point: 15°C
Humidity: 69%
Barometer: 1016 hPa
Clouds: Mostly Cloudy
Visibility: More than 10 km
Cloud details: Partly Cloudy 2700 ft,
Mostly Cloudy 4000 ft
ELLX 051720Z 25017KT 9999 SCT027 BKN040 21/15 Q1016 NOSIG
EBOS - Oostende
Updated: 05-07-2020 19:20
Few Clouds  
Few Clouds  
   Wind: SW 38.9 km/h<br />Gust to 38.9 km/h
Wind: SW 38.9 km/h
Gust to 38.9 km/h
Temperature: 17°C
Dew Point: 11°C
Humidity: 68%
Barometer: 1012 hPa
Clouds: Few Clouds
Visibility: More than 10 km
Cloud details: Few Clouds 3000 ft
EBOS 051720Z 23021G31KT 9999 FEW030 17/11 Q1012 NOSIG

Script developed by  Saratoga-weather.org Adapted for the template by  Weerstation Leuven

This is an optional block. Switch it on/off in your settings-file: $SITE['bannerTop'] = false; or $SITE['bannerBottom'] = false;

You can display ads, any other important text or photo’s using text / html or PHP code.

You can place one or more at the top and or bottom and it can all be different for content / size .